Carteret, New Jersey
Current Conditions -  °F | °C
As of 8:35 PM on Tuesday 21 Oct 2014 (Local Time) from KLDJ Reporting Station
Thunderstorm Thunderstorm  
Wind Chill: 63°   Ceiling: Unl
Heat Index: 63°   Visibility: 10mi
Dew Point: 51°   Wind: 8mph
Humidity: 66%   Direction: 30°NNE
Pressure: 29.9"   Gusts: NA
Location:  40.58°N, 74.22°W
Report Text: KLDJ 220035Z AUTO 03007KT 10SM TS SCT022 SCT029 SCT090 17/11 A2990 RMK AO2 T01720108
Loading
Personal Weather Stations






























Interactive Weather Map
Tropical Storm Tracking
New forecast layout! Learn more

10-Day Weather Forecast

Advertisements
Track Severe Weather on mobile